sensor_id;sensor_type;location;lat;lon;timestamp;P1;durP1;ratioP1;P2;durP2;ratioP2
75691;SDS011;64307;52.508;6.090;2023-05-07T00:01:14;16.50;;;10.38;;
75691;SDS011;64307;52.508;6.090;2023-05-07T00:03:39;14.65;;;9.85;;
75691;SDS011;64307;52.508;6.090;2023-05-07T00:06:05;13.73;;;9.83;;
75691;SDS011;64307;52.508;6.090;2023-05-07T00:08:30;13.85;;;9.70;;
75691;SDS011;64307;52.508;6.090;2023-05-07T00:10:55;12.82;;;9.82;;
75691;SDS011;64307;52.508;6.090;2023-05-07T00:13:21;15.50;;;10.00;;
75691;SDS011;64307;52.508;6.090;2023-05-07T00:15:46;13.33;;;9.03;;
75691;SDS011;64307;52.508;6.090;2023-05-07T00:18:11;13.50;;;9.80;;
75691;SDS011;64307;52.508;6.090;2023-05-07T00:20:37;14.23;;;9.00;;
75691;SDS011;64307;52.508;6.090;2023-05-07T00:23:02;15.32;;;9.57;;
75691;SDS011;64307;52.508;6.090;2023-05-07T00:25:27;14.98;;;9.70;;
75691;SDS011;64307;52.508;6.090;2023-05-07T00:27:53;16.27;;;11.03;;
75691;SDS011;64307;52.508;6.090;2023-05-07T00:30:18;16.63;;;12.03;;
75691;SDS011;64307;52.508;6.090;2023-05-07T00:32:43;16.63;;;11.02;;
75691;SDS011;64307;52.508;6.090;2023-05-07T00:35:10;15.85;;;12.20;;
75691;SDS011;64307;52.508;6.090;2023-05-07T00:37:36;15.18;;;11.85;;
75691;SDS011;64307;52.508;6.090;2023-05-07T00:40:01;16.20;;;10.73;;
75691;SDS011;64307;52.508;6.090;2023-05-07T00:42:29;16.98;;;10.95;;
75691;SDS011;64307;52.508;6.090;2023-05-07T00:44:57;15.05;;;11.32;;
75691;SDS011;64307;52.508;6.090;2023-05-07T00:47:22;15.40;;;10.27;;
75691;SDS011;64307;52.508;6.090;2023-05-07T00:49:48;15.15;;;11.02;;
75691;SDS011;64307;52.508;6.090;2023-05-07T00:52:14;13.70;;;10.18;;
75691;SDS011;64307;52.508;6.090;2023-05-07T00:54:41;15.65;;;11.38;;
75691;SDS011;64307;52.508;6.090;2023-05-07T00:57:07;17.48;;;12.25;;
75691;SDS011;64307;52.508;6.090;2023-05-07T00:59:34;16.38;;;11.88;;
75691;SDS011;64307;52.508;6.090;2023-05-07T01:02:00;16.73;;;11.93;;
75691;SDS011;64307;52.508;6.090;2023-05-07T01:04:25;16.25;;;12.35;;
75691;SDS011;64307;52.508;6.090;2023-05-07T01:06:51;17.35;;;12.98;;
75691;SDS011;64307;52.508;6.090;2023-05-07T01:09:20;16.42;;;11.93;;
75691;SDS011;64307;52.508;6.090;2023-05-07T01:11:46;18.38;;;12.40;;
75691;SDS011;64307;52.508;6.090;2023-05-07T01:14:12;18.55;;;13.00;;
75691;SDS011;64307;52.508;6.090;2023-05-07T01:16:38;17.92;;;12.65;;
75691;SDS011;64307;52.508;6.090;2023-05-07T01:19:06;18.27;;;12.77;;
75691;SDS011;64307;52.508;6.090;2023-05-07T01:21:33;19.13;;;12.43;;
75691;SDS011;64307;52.508;6.090;2023-05-07T01:23:59;17.92;;;13.65;;
75691;SDS011;64307;52.508;6.090;2023-05-07T01:26:25;18.27;;;13.30;;
75691;SDS011;64307;52.508;6.090;2023-05-07T01:28:51;16.97;;;12.53;;
75691;SDS011;64307;52.508;6.090;2023-05-07T01:31:16;18.83;;;13.50;;
75691;SDS011;64307;52.508;6.090;2023-05-07T01:33:42;18.90;;;14.27;;
75691;SDS011;64307;52.508;6.090;2023-05-07T01:36:09;20.20;;;14.88;;
75691;SDS011;64307;52.508;6.090;2023-05-07T01:38:36;24.67;;;14.90;;
75691;SDS011;64307;52.508;6.090;2023-05-07T01:41:04;23.33;;;15.55;;
75691;SDS011;64307;52.508;6.090;2023-05-07T01:43:29;21.67;;;14.85;;
75691;SDS011;64307;52.508;6.090;2023-05-07T01:45:55;23.00;;;15.65;;
75691;SDS011;64307;52.508;6.090;2023-05-07T01:48:22;22.58;;;16.88;;
75691;SDS011;64307;52.508;6.090;2023-05-07T01:50:49;22.80;;;16.65;;
75691;SDS011;64307;52.508;6.090;2023-05-07T01:53:14;27.02;;;18.73;;
75691;SDS011;64307;52.508;6.090;2023-05-07T01:55:40;22.40;;;15.85;;
75691;SDS011;64307;52.508;6.090;2023-05-07T01:58:05;27.47;;;18.13;;
75691;SDS011;64307;52.508;6.090;2023-05-07T02:00:31;24.70;;;17.05;;
75691;SDS011;64307;52.508;6.090;2023-05-07T02:02:56;22.63;;;16.40;;
75691;SDS011;64307;52.508;6.090;2023-05-07T02:05:22;23.63;;;17.92;;
75691;SDS011;64307;52.508;6.090;2023-05-07T02:07:47;23.00;;;17.15;;
75691;SDS011;64307;52.508;6.090;2023-05-07T02:10:12;23.77;;;16.33;;
75691;SDS011;64307;52.508;6.090;2023-05-07T02:12:38;23.80;;;16.52;;
75691;SDS011;64307;52.508;6.090;2023-05-07T02:15:03;25.37;;;17.30;;
75691;SDS011;64307;52.508;6.090;2023-05-07T02:17:29;26.10;;;17.30;;
75691;SDS011;64307;52.508;6.090;2023-05-07T02:19:56;27.30;;;17.98;;
75691;SDS011;64307;52.508;6.090;2023-05-07T02:22:22;24.65;;;16.88;;
75691;SDS011;64307;52.508;6.090;2023-05-07T02:24:47;26.08;;;18.13;;
75691;SDS011;64307;52.508;6.090;2023-05-07T02:27:12;23.00;;;17.53;;
75691;SDS011;64307;52.508;6.090;2023-05-07T02:29:39;24.05;;;17.85;;
75691;SDS011;64307;52.508;6.090;2023-05-07T02:32:04;24.87;;;18.50;;
75691;SDS011;64307;52.508;6.090;2023-05-07T02:34:29;25.37;;;18.53;;
75691;SDS011;64307;52.508;6.090;2023-05-07T02:36:55;23.27;;;18.00;;
75691;SDS011;64307;52.508;6.090;2023-05-07T02:39:20;25.83;;;18.25;;
75691;SDS011;64307;52.508;6.090;2023-05-07T02:41:46;24.40;;;16.58;;
75691;SDS011;64307;52.508;6.090;2023-05-07T02:44:11;27.45;;;18.45;;
75691;SDS011;64307;52.508;6.090;2023-05-07T02:46:36;22.37;;;16.83;;
75691;SDS011;64307;52.508;6.090;2023-05-07T02:49:02;23.13;;;17.15;;
75691;SDS011;64307;52.508;6.090;2023-05-07T02:51:27;23.80;;;17.30;;
75691;SDS011;64307;52.508;6.090;2023-05-07T02:53:52;23.23;;;16.57;;
75691;SDS011;64307;52.508;6.090;2023-05-07T02:56:17;22.80;;;15.88;;
75691;SDS011;64307;52.508;6.090;2023-05-07T02:58:43;24.42;;;16.73;;
75691;SDS011;64307;52.508;6.090;2023-05-07T03:01:08;24.77;;;17.17;;
75691;SDS011;64307;52.508;6.090;2023-05-07T03:03:34;21.95;;;15.93;;
75691;SDS011;64307;52.508;6.090;2023-05-07T03:06:00;22.10;;;16.10;;
75691;SDS011;64307;52.508;6.090;2023-05-07T03:08:25;22.58;;;15.70;;
75691;SDS011;64307;52.508;6.090;2023-05-07T03:10:51;25.27;;;15.93;;
75691;SDS011;64307;52.508;6.090;2023-05-07T03:13:16;23.85;;;14.75;;
75691;SDS011;64307;52.508;6.090;2023-05-07T03:15:42;25.63;;;17.23;;
75691;SDS011;64307;52.508;6.090;2023-05-07T03:18:07;21.27;;;14.48;;
75691;SDS011;64307;52.508;6.090;2023-05-07T03:20:32;22.65;;;15.57;;
75691;SDS011;64307;52.508;6.090;2023-05-07T03:22:58;22.05;;;14.38;;
75691;SDS011;64307;52.508;6.090;2023-05-07T03:25:23;20.87;;;14.83;;
75691;SDS011;64307;52.508;6.090;2023-05-07T03:27:48;21.80;;;15.00;;
75691;SDS011;64307;52.508;6.090;2023-05-07T03:30:14;23.15;;;14.48;;
75691;SDS011;64307;52.508;6.090;2023-05-07T03:32:39;25.27;;;14.18;;
75691;SDS011;64307;52.508;6.090;2023-05-07T03:35:05;22.40;;;14.02;;
75691;SDS011;64307;52.508;6.090;2023-05-07T03:37:30;24.33;;;13.63;;
75691;SDS011;64307;52.508;6.090;2023-05-07T03:39:56;21.75;;;14.15;;
75691;SDS011;64307;52.508;6.090;2023-05-07T03:42:21;22.55;;;14.68;;
75691;SDS011;64307;52.508;6.090;2023-05-07T03:44:46;21.85;;;14.48;;
75691;SDS011;64307;52.508;6.090;2023-05-07T03:47:13;23.52;;;14.80;;
75691;SDS011;64307;52.508;6.090;2023-05-07T03:49:38;25.48;;;15.32;;
75691;SDS011;64307;52.508;6.090;2023-05-07T03:52:04;25.30;;;16.17;;
75691;SDS011;64307;52.508;6.090;2023-05-07T03:54:30;27.08;;;14.23;;
75691;SDS011;64307;52.508;6.090;2023-05-07T03:56:55;22.48;;;15.13;;
75691;SDS011;64307;52.508;6.090;2023-05-07T03:59:21;25.60;;;14.20;;
75691;SDS011;64307;52.508;6.090;2023-05-07T04:01:47;24.73;;;14.80;;
75691;SDS011;64307;52.508;6.090;2023-05-07T04:04:13;25.13;;;15.32;;
75691;SDS011;64307;52.508;6.090;2023-05-07T04:06:39;23.65;;;15.35;;
75691;SDS011;64307;52.508;6.090;2023-05-07T04:09:04;23.83;;;15.65;;
75691;SDS011;64307;52.508;6.090;2023-05-07T04:11:30;24.17;;;15.48;;
75691;SDS011;64307;52.508;6.090;2023-05-07T04:13:55;26.70;;;16.30;;
75691;SDS011;64307;52.508;6.090;2023-05-07T04:16:20;26.33;;;15.40;;
75691;SDS011;64307;52.508;6.090;2023-05-07T04:18:45;25.70;;;15.52;;
75691;SDS011;64307;52.508;6.090;2023-05-07T04:21:14;28.00;;;15.93;;
75691;SDS011;64307;52.508;6.090;2023-05-07T04:23:40;29.20;;;16.35;;
75691;SDS011;64307;52.508;6.090;2023-05-07T04:26:06;24.60;;;14.85;;
75691;SDS011;64307;52.508;6.090;2023-05-07T04:28:31;27.27;;;15.70;;
75691;SDS011;64307;52.508;6.090;2023-05-07T04:30:57;23.55;;;15.25;;
75691;SDS011;64307;52.508;6.090;2023-05-07T04:33:22;25.33;;;16.38;;
75691;SDS011;64307;52.508;6.090;2023-05-07T04:35:48;24.33;;;15.07;;
75691;SDS011;64307;52.508;6.090;2023-05-07T04:38:13;28.25;;;16.35;;
75691;SDS011;64307;52.508;6.090;2023-05-07T04:40:39;29.20;;;16.63;;
75691;SDS011;64307;52.508;6.090;2023-05-07T04:43:04;30.40;;;17.45;;
75691;SDS011;64307;52.508;6.090;2023-05-07T04:45:29;25.90;;;16.63;;
75691;SDS011;64307;52.508;6.090;2023-05-07T04:47:55;27.85;;;16.55;;
75691;SDS011;64307;52.508;6.090;2023-05-07T04:50:20;28.63;;;17.17;;
75691;SDS011;64307;52.508;6.090;2023-05-07T04:52:48;26.85;;;16.30;;
75691;SDS011;64307;52.508;6.090;2023-05-07T04:55:13;27.60;;;17.65;;
75691;SDS011;64307;52.508;6.090;2023-05-07T04:57:38;27.27;;;17.00;;
75691;SDS011;64307;52.508;6.090;2023-05-07T05:00:05;27.20;;;16.92;;
75691;SDS011;64307;52.508;6.090;2023-05-07T05:02:33;28.60;;;17.63;;
75691;SDS011;64307;52.508;6.090;2023-05-07T05:04:58;29.43;;;18.13;;
75691;SDS011;64307;52.508;6.090;2023-05-07T05:07:24;25.55;;;16.45;;
75691;SDS011;64307;52.508;6.090;2023-05-07T05:09:49;24.83;;;16.52;;
75691;SDS011;64307;52.508;6.090;2023-05-07T05:12:15;27.60;;;16.87;;
75691;SDS011;64307;52.508;6.090;2023-05-07T05:14:40;27.00;;;16.42;;
75691;SDS011;64307;52.508;6.090;2023-05-07T05:17:05;28.67;;;16.63;;
75691;SDS011;64307;52.508;6.090;2023-05-07T05:19:31;31.67;;;17.93;;
75691;SDS011;64307;52.508;6.090;2023-05-07T05:21:56;25.73;;;16.47;;
75691;SDS011;64307;52.508;6.090;2023-05-07T05:24:21;28.02;;;16.90;;
75691;SDS011;64307;52.508;6.090;2023-05-07T05:26:46;29.73;;;17.42;;
75691;SDS011;64307;52.508;6.090;2023-05-07T05:29:12;26.07;;;17.13;;
75691;SDS011;64307;52.508;6.090;2023-05-07T05:31:37;27.60;;;16.35;;
75691;SDS011;64307;52.508;6.090;2023-05-07T05:34:02;26.95;;;16.67;;
75691;SDS011;64307;52.508;6.090;2023-05-07T05:36:28;31.52;;;17.00;;
75691;SDS011;64307;52.508;6.090;2023-05-07T05:38:53;28.25;;;16.85;;
75691;SDS011;64307;52.508;6.090;2023-05-07T05:41:19;29.45;;;17.33;;
75691;SDS011;64307;52.508;6.090;2023-05-07T05:43:44;26.33;;;16.33;;
75691;SDS011;64307;52.508;6.090;2023-05-07T05:46:09;26.50;;;16.87;;
75691;SDS011;64307;52.508;6.090;2023-05-07T05:48:36;28.25;;;16.38;;
75691;SDS011;64307;52.508;6.090;2023-05-07T05:51:01;29.52;;;16.20;;
75691;SDS011;64307;52.508;6.090;2023-05-07T05:53:27;27.98;;;16.23;;
75691;SDS011;64307;52.508;6.090;2023-05-07T05:55:52;27.38;;;16.05;;
75691;SDS011;64307;52.508;6.090;2023-05-07T05:58:17;29.30;;;16.30;;
75691;SDS011;64307;52.508;6.090;2023-05-07T06:00:44;27.02;;;16.40;;
75691;SDS011;64307;52.508;6.090;2023-05-07T06:03:09;28.48;;;17.13;;
75691;SDS011;64307;52.508;6.090;2023-05-07T06:05:35;27.63;;;16.05;;
75691;SDS011;64307;52.508;6.090;2023-05-07T06:08:00;28.48;;;16.42;;
75691;SDS011;64307;52.508;6.090;2023-05-07T06:10:25;25.90;;;16.93;;
75691;SDS011;64307;52.508;6.090;2023-05-07T06:12:52;29.73;;;16.15;;
75691;SDS011;64307;52.508;6.090;2023-05-07T06:15:17;28.92;;;17.58;;
75691;SDS011;64307;52.508;6.090;2023-05-07T06:17:42;29.63;;;16.55;;
75691;SDS011;64307;52.508;6.090;2023-05-07T06:20:08;28.57;;;17.13;;
75691;SDS011;64307;52.508;6.090;2023-05-07T06:22:33;29.80;;;17.98;;
75691;SDS011;64307;52.508;6.090;2023-05-07T06:24:58;29.03;;;17.27;;
75691;SDS011;64307;52.508;6.090;2023-05-07T06:27:24;28.33;;;17.23;;
75691;SDS011;64307;52.508;6.090;2023-05-07T06:29:49;28.70;;;16.13;;
75691;SDS011;64307;52.508;6.090;2023-05-07T06:32:15;28.55;;;16.77;;
75691;SDS011;64307;52.508;6.090;2023-05-07T06:34:41;31.17;;;17.95;;
75691;SDS011;64307;52.508;6.090;2023-05-07T06:37:07;28.90;;;17.65;;
75691;SDS011;64307;52.508;6.090;2023-05-07T06:39:32;29.30;;;17.45;;
75691;SDS011;64307;52.508;6.090;2023-05-07T06:41:59;31.65;;;18.33;;
75691;SDS011;64307;52.508;6.090;2023-05-07T06:44:25;26.58;;;17.25;;
75691;SDS011;64307;52.508;6.090;2023-05-07T06:46:50;29.67;;;16.67;;
75691;SDS011;64307;52.508;6.090;2023-05-07T06:49:16;28.80;;;17.33;;
75691;SDS011;64307;52.508;6.090;2023-05-07T06:51:42;30.13;;;17.70;;
75691;SDS011;64307;52.508;6.090;2023-05-07T06:54:08;30.02;;;17.83;;
75691;SDS011;64307;52.508;6.090;2023-05-07T06:56:33;30.05;;;17.63;;
75691;SDS011;64307;52.508;6.090;2023-05-07T06:58:59;30.88;;;17.92;;
75691;SDS011;64307;52.508;6.090;2023-05-07T07:01:25;28.70;;;18.38;;
75691;SDS011;64307;52.508;6.090;2023-05-07T07:03:50;28.17;;;18.00;;
75691;SDS011;64307;52.508;6.090;2023-05-07T07:06:16;31.75;;;18.58;;
75691;SDS011;64307;52.508;6.090;2023-05-07T07:08:42;26.58;;;16.25;;
75691;SDS011;64307;52.508;6.090;2023-05-07T07:11:08;28.35;;;17.05;;
75691;SDS011;64307;52.508;6.090;2023-05-07T07:13:35;28.10;;;19.25;;
75691;SDS011;64307;52.508;6.090;2023-05-07T07:16:00;28.60;;;17.23;;
75691;SDS011;64307;52.508;6.090;2023-05-07T07:18:25;30.50;;;18.40;;
75691;SDS011;64307;52.508;6.090;2023-05-07T07:20:51;29.37;;;17.70;;
75691;SDS011;64307;52.508;6.090;2023-05-07T07:23:19;32.90;;;19.47;;
75691;SDS011;64307;52.508;6.090;2023-05-07T07:25:44;29.92;;;16.67;;
75691;SDS011;64307;52.508;6.090;2023-05-07T07:28:10;30.23;;;17.65;;
75691;SDS011;64307;52.508;6.090;2023-05-07T07:30:35;27.73;;;16.38;;
75691;SDS011;64307;52.508;6.090;2023-05-07T07:33:01;29.58;;;16.88;;
75691;SDS011;64307;52.508;6.090;2023-05-07T07:35:34;30.70;;;17.75;;
75691;SDS011;64307;52.508;6.090;2023-05-07T07:40:25;27.52;;;16.67;;
75691;SDS011;64307;52.508;6.090;2023-05-07T07:42:51;27.65;;;16.88;;
75691;SDS011;64307;52.508;6.090;2023-05-07T07:45:19;26.40;;;16.73;;
75691;SDS011;64307;52.508;6.090;2023-05-07T07:47:45;26.20;;;16.15;;
75691;SDS011;64307;52.508;6.090;2023-05-07T07:50:11;24.10;;;15.73;;
75691;SDS011;64307;52.508;6.090;2023-05-07T07:52:36;26.75;;;16.17;;
75691;SDS011;64307;52.508;6.090;2023-05-07T07:55:02;24.20;;;17.02;;
75691;SDS011;64307;52.508;6.090;2023-05-07T07:57:27;25.25;;;16.90;;
75691;SDS011;64307;52.508;6.090;2023-05-07T07:59:52;24.55;;;16.63;;
75691;SDS011;64307;52.508;6.090;2023-05-07T08:02:18;24.42;;;16.58;;
75691;SDS011;64307;52.508;6.090;2023-05-07T08:04:43;22.63;;;15.70;;
75691;SDS011;64307;52.508;6.090;2023-05-07T08:07:09;24.83;;;16.80;;
75691;SDS011;64307;52.508;6.090;2023-05-07T08:09:35;26.52;;;16.50;;
75691;SDS011;64307;52.508;6.090;2023-05-07T08:12:01;24.60;;;17.08;;
75691;SDS011;64307;52.508;6.090;2023-05-07T08:14:27;24.92;;;17.33;;
75691;SDS011;64307;52.508;6.090;2023-05-07T08:16:53;22.70;;;15.82;;
75691;SDS011;64307;52.508;6.090;2023-05-07T08:19:19;22.23;;;15.75;;
75691;SDS011;64307;52.508;6.090;2023-05-07T08:21:44;21.75;;;15.43;;
75691;SDS011;64307;52.508;6.090;2023-05-07T08:24:12;22.50;;;16.20;;
75691;SDS011;64307;52.508;6.090;2023-05-07T08:26:38;21.40;;;15.50;;
75691;SDS011;64307;52.508;6.090;2023-05-07T08:29:04;22.15;;;15.27;;
75691;SDS011;64307;52.508;6.090;2023-05-07T08:31:29;23.75;;;16.70;;
75691;SDS011;64307;52.508;6.090;2023-05-07T08:33:55;23.38;;;15.45;;
75691;SDS011;64307;52.508;6.090;2023-05-07T08:36:20;23.67;;;15.35;;
75691;SDS011;64307;52.508;6.090;2023-05-07T08:38:46;22.13;;;15.90;;
75691;SDS011;64307;52.508;6.090;2023-05-07T08:41:11;20.52;;;15.35;;
75691;SDS011;64307;52.508;6.090;2023-05-07T08:43:36;21.05;;;14.90;;
75691;SDS011;64307;52.508;6.090;2023-05-07T08:46:05;19.45;;;13.88;;
75691;SDS011;64307;52.508;6.090;2023-05-07T08:48:33;22.77;;;15.73;;
75691;SDS011;64307;52.508;6.090;2023-05-07T08:50:59;21.85;;;14.35;;
75691;SDS011;64307;52.508;6.090;2023-05-07T08:53:24;23.73;;;16.05;;
75691;SDS011;64307;52.508;6.090;2023-05-07T08:55:50;22.52;;;15.35;;
75691;SDS011;64307;52.508;6.090;2023-05-07T08:58:16;23.25;;;14.85;;
75691;SDS011;64307;52.508;6.090;2023-05-07T09:00:41;22.15;;;15.13;;
75691;SDS011;64307;52.508;6.090;2023-05-07T09:03:07;22.65;;;15.43;;
75691;SDS011;64307;52.508;6.090;2023-05-07T09:05:32;21.70;;;15.15;;
75691;SDS011;64307;52.508;6.090;2023-05-07T09:08:04;20.40;;;14.55;;
75691;SDS011;64307;52.508;6.090;2023-05-07T09:10:32;21.05;;;15.23;;
75691;SDS011;64307;52.508;6.090;2023-05-07T09:12:58;21.10;;;13.95;;
75691;SDS011;64307;52.508;6.090;2023-05-07T09:15:24;18.90;;;14.00;;
75691;SDS011;64307;52.508;6.090;2023-05-07T09:17:49;20.77;;;14.80;;
75691;SDS011;64307;52.508;6.090;2023-05-07T09:20:15;22.10;;;14.47;;
75691;SDS011;64307;52.508;6.090;2023-05-07T09:22:41;20.77;;;14.48;;
75691;SDS011;64307;52.508;6.090;2023-05-07T09:25:06;22.27;;;14.48;;
75691;SDS011;64307;52.508;6.090;2023-05-07T09:27:33;20.70;;;14.60;;
75691;SDS011;64307;52.508;6.090;2023-05-07T09:29:58;20.45;;;15.07;;
75691;SDS011;64307;52.508;6.090;2023-05-07T09:32:24;21.00;;;15.27;;
75691;SDS011;64307;52.508;6.090;2023-05-07T09:34:50;21.48;;;14.88;;
75691;SDS011;64307;52.508;6.090;2023-05-07T09:37:15;20.00;;;14.65;;
75691;SDS011;64307;52.508;6.090;2023-05-07T09:39:41;21.55;;;14.75;;
75691;SDS011;64307;52.508;6.090;2023-05-07T09:42:08;20.67;;;14.93;;
75691;SDS011;64307;52.508;6.090;2023-05-07T09:44:34;19.15;;;13.73;;
75691;SDS011;64307;52.508;6.090;2023-05-07T09:47:00;19.10;;;14.00;;
75691;SDS011;64307;52.508;6.090;2023-05-07T09:49:29;21.05;;;15.07;;
75691;SDS011;64307;52.508;6.090;2023-05-07T09:51:56;20.60;;;14.70;;
75691;SDS011;64307;52.508;6.090;2023-05-07T09:54:24;18.63;;;13.95;;
75691;SDS011;64307;52.508;6.090;2023-05-07T09:56:54;17.15;;;13.00;;
75691;SDS011;64307;52.508;6.090;2023-05-07T09:59:20;17.90;;;12.93;;
75691;SDS011;64307;52.508;6.090;2023-05-07T10:01:46;17.08;;;12.93;;
75691;SDS011;64307;52.508;6.090;2023-05-07T10:04:11;18.90;;;13.05;;
75691;SDS011;64307;52.508;6.090;2023-05-07T10:06:37;18.10;;;13.50;;
75691;SDS011;64307;52.508;6.090;2023-05-07T10:09:03;19.25;;;13.55;;
75691;SDS011;64307;52.508;6.090;2023-05-07T10:11:33;17.73;;;13.00;;
75691;SDS011;64307;52.508;6.090;2023-05-07T10:14:03;19.08;;;13.25;;
75691;SDS011;64307;52.508;6.090;2023-05-07T10:16:34;17.65;;;12.90;;
75691;SDS011;64307;52.508;6.090;2023-05-07T10:19:08;18.50;;;13.38;;
75691;SDS011;64307;52.508;6.090;2023-05-07T10:21:37;20.20;;;14.02;;
75691;SDS011;64307;52.508;6.090;2023-05-07T10:26:53;20.08;;;15.13;;
75691;SDS011;64307;52.508;6.090;2023-05-07T10:32:14;21.50;;;13.88;;
75691;SDS011;64307;52.508;6.090;2023-05-07T10:34:56;21.55;;;14.10;;
75691;SDS011;64307;52.508;6.090;2023-05-07T10:37:25;23.83;;;16.00;;
75691;SDS011;64307;52.508;6.090;2023-05-07T10:39:51;20.45;;;15.60;;
75691;SDS011;64307;52.508;6.090;2023-05-07T10:42:17;20.75;;;14.73;;
75691;SDS011;64307;52.508;6.090;2023-05-07T10:44:42;20.35;;;14.52;;
75691;SDS011;64307;52.508;6.090;2023-05-07T10:52:12;17.70;;;13.52;;
75691;SDS011;64307;52.508;6.090;2023-05-07T10:54:42;19.40;;;14.65;;
75691;SDS011;64307;52.508;6.090;2023-05-07T10:59:56;21.67;;;15.40;;
75691;SDS011;64307;52.508;6.090;2023-05-07T11:02:22;20.15;;;14.05;;
75691;SDS011;64307;52.508;6.090;2023-05-07T11:05:32;19.13;;;13.70;;
75691;SDS011;64307;52.508;6.090;2023-05-07T11:07:53;21.38;;;14.20;;
75691;SDS011;64307;52.508;6.090;2023-05-07T11:10:20;21.90;;;14.93;;
75691;SDS011;64307;52.508;6.090;2023-05-07T11:15:11;22.40;;;15.13;;
75691;SDS011;64307;52.508;6.090;2023-05-07T11:17:53;20.88;;;14.65;;
75691;SDS011;64307;52.508;6.090;2023-05-07T11:20:20;20.35;;;14.48;;
75691;SDS011;64307;52.508;6.090;2023-05-07T11:22:46;22.10;;;14.88;;
75691;SDS011;64307;52.508;6.090;2023-05-07T11:25:14;20.85;;;14.07;;
75691;SDS011;64307;52.508;6.090;2023-05-07T11:27:43;22.70;;;15.38;;
75691;SDS011;64307;52.508;6.090;2023-05-07T11:30:09;19.52;;;15.00;;
75691;SDS011;64307;52.508;6.090;2023-05-07T11:32:36;18.40;;;13.70;;
75691;SDS011;64307;52.508;6.090;2023-05-07T11:35:01;20.13;;;14.07;;
75691;SDS011;64307;52.508;6.090;2023-05-07T11:37:27;20.70;;;14.77;;
75691;SDS011;64307;52.508;6.090;2023-05-07T11:40:03;20.92;;;14.93;;
75691;SDS011;64307;52.508;6.090;2023-05-07T11:42:32;19.67;;;13.80;;
75691;SDS011;64307;52.508;6.090;2023-05-07T11:44:59;20.33;;;14.43;;
75691;SDS011;64307;52.508;6.090;2023-05-07T11:47:25;21.30;;;14.65;;
75691;SDS011;64307;52.508;6.090;2023-05-07T11:49:51;22.30;;;15.18;;
75691;SDS011;64307;52.508;6.090;2023-05-07T11:52:18;20.85;;;14.80;;
75691;SDS011;64307;52.508;6.090;2023-05-07T11:54:53;20.85;;;14.82;;
75691;SDS011;64307;52.508;6.090;2023-05-07T11:57:20;20.85;;;14.73;;
75691;SDS011;64307;52.508;6.090;2023-05-07T11:59:47;21.83;;;15.20;;
75691;SDS011;64307;52.508;6.090;2023-05-07T12:02:16;24.42;;;16.17;;
75691;SDS011;64307;52.508;6.090;2023-05-07T12:04:42;22.40;;;15.52;;
75691;SDS011;64307;52.508;6.090;2023-05-07T12:07:11;22.55;;;15.50;;
75691;SDS011;64307;52.508;6.090;2023-05-07T12:09:38;23.40;;;16.20;;
75691;SDS011;64307;52.508;6.090;2023-05-07T12:12:04;20.67;;;14.55;;
75691;SDS011;64307;52.508;6.090;2023-05-07T12:14:30;23.50;;;16.65;;
75691;SDS011;64307;52.508;6.090;2023-05-07T12:16:56;20.45;;;14.52;;
75691;SDS011;64307;52.508;6.090;2023-05-07T12:19:22;21.80;;;15.55;;
75691;SDS011;64307;52.508;6.090;2023-05-07T12:21:47;21.90;;;15.80;;
75691;SDS011;64307;52.508;6.090;2023-05-07T12:24:14;22.17;;;14.52;;
75691;SDS011;64307;52.508;6.090;2023-05-07T12:26:41;22.55;;;14.20;;
75691;SDS011;64307;52.508;6.090;2023-05-07T12:29:06;21.98;;;13.95;;
75691;SDS011;64307;52.508;6.090;2023-05-07T12:31:32;22.50;;;15.07;;
75691;SDS011;64307;52.508;6.090;2023-05-07T12:33:57;22.88;;;15.20;;
75691;SDS011;64307;52.508;6.090;2023-05-07T12:36:23;22.55;;;15.40;;
75691;SDS011;64307;52.508;6.090;2023-05-07T12:38:51;20.90;;;13.98;;
75691;SDS011;64307;52.508;6.090;2023-05-07T12:41:16;24.20;;;16.20;;
75691;SDS011;64307;52.508;6.090;2023-05-07T12:43:46;21.25;;;15.30;;
75691;SDS011;64307;52.508;6.090;2023-05-07T12:46:11;22.42;;;16.23;;
75691;SDS011;64307;52.508;6.090;2023-05-07T12:48:45;23.48;;;15.70;;
75691;SDS011;64307;52.508;6.090;2023-05-07T12:51:11;23.65;;;15.98;;
75691;SDS011;64307;52.508;6.090;2023-05-07T12:53:41;25.75;;;15.45;;
75691;SDS011;64307;52.508;6.090;2023-05-07T12:56:07;22.88;;;15.73;;
75691;SDS011;64307;52.508;6.090;2023-05-07T12:58:33;23.70;;;16.25;;
75691;SDS011;64307;52.508;6.090;2023-05-07T13:01:01;21.70;;;15.45;;
75691;SDS011;64307;52.508;6.090;2023-05-07T13:03:33;21.65;;;15.27;;
75691;SDS011;64307;52.508;6.090;2023-05-07T13:06:09;22.08;;;16.00;;
75691;SDS011;64307;52.508;6.090;2023-05-07T13:08:39;22.75;;;14.38;;
75691;SDS011;64307;52.508;6.090;2023-05-07T13:11:09;21.38;;;14.50;;
75691;SDS011;64307;52.508;6.090;2023-05-07T13:13:35;20.85;;;13.63;;
75691;SDS011;64307;52.508;6.090;2023-05-07T13:16:02;20.92;;;13.85;;
75691;SDS011;64307;52.508;6.090;2023-05-07T13:18:31;20.75;;;13.55;;
75691;SDS011;64307;52.508;6.090;2023-05-07T13:20:57;20.25;;;13.65;;
75691;SDS011;64307;52.508;6.090;2023-05-07T13:23:23;23.50;;;14.40;;
75691;SDS011;64307;52.508;6.090;2023-05-07T13:25:50;20.52;;;13.48;;
75691;SDS011;64307;52.508;6.090;2023-05-07T13:28:16;20.63;;;13.48;;
75691;SDS011;64307;52.508;6.090;2023-05-07T13:30:41;22.00;;;13.70;;
75691;SDS011;64307;52.508;6.090;2023-05-07T13:33:07;23.25;;;14.23;;
75691;SDS011;64307;52.508;6.090;2023-05-07T13:35:34;21.63;;;14.73;;
75691;SDS011;64307;52.508;6.090;2023-05-07T13:38:00;22.92;;;14.48;;
75691;SDS011;64307;52.508;6.090;2023-05-07T13:40:25;20.83;;;13.85;;
75691;SDS011;64307;52.508;6.090;2023-05-07T13:42:50;20.27;;;13.63;;
75691;SDS011;64307;52.508;6.090;2023-05-07T13:45:16;22.25;;;13.88;;
75691;SDS011;64307;52.508;6.090;2023-05-07T13:47:44;19.67;;;12.85;;
75691;SDS011;64307;52.508;6.090;2023-05-07T13:50:10;18.55;;;13.02;;
75691;SDS011;64307;52.508;6.090;2023-05-07T13:52:42;21.35;;;12.95;;
75691;SDS011;64307;52.508;6.090;2023-05-07T13:55:08;22.65;;;14.65;;
75691;SDS011;64307;52.508;6.090;2023-05-07T13:57:35;22.65;;;14.27;;
75691;SDS011;64307;52.508;6.090;2023-05-07T14:00:00;22.23;;;14.80;;
75691;SDS011;64307;52.508;6.090;2023-05-07T14:02:26;20.10;;;14.20;;
75691;SDS011;64307;52.508;6.090;2023-05-07T14:04:51;20.67;;;14.38;;
75691;SDS011;64307;52.508;6.090;2023-05-07T14:07:17;21.30;;;13.98;;
75691;SDS011;64307;52.508;6.090;2023-05-07T14:09:42;22.33;;;14.18;;
75691;SDS011;64307;52.508;6.090;2023-05-07T14:12:07;22.37;;;13.57;;
75691;SDS011;64307;52.508;6.090;2023-05-07T14:14:34;19.80;;;14.20;;
75691;SDS011;64307;52.508;6.090;2023-05-07T14:16:59;21.88;;;13.60;;
75691;SDS011;64307;52.508;6.090;2023-05-07T14:19:25;19.65;;;14.48;;
75691;SDS011;64307;52.508;6.090;2023-05-07T14:21:50;19.20;;;13.98;;
75691;SDS011;64307;52.508;6.090;2023-05-07T14:24:16;24.55;;;14.18;;
75691;SDS011;64307;52.508;6.090;2023-05-07T14:26:41;18.45;;;12.52;;
75691;SDS011;64307;52.508;6.090;2023-05-07T14:29:06;19.13;;;13.70;;
75691;SDS011;64307;52.508;6.090;2023-05-07T14:31:31;18.90;;;13.13;;
75691;SDS011;64307;52.508;6.090;2023-05-07T14:33:58;16.75;;;11.73;;